Westport, Connecticut
Current Conditions -  °F | °C
As of 6:19 PM on Sunday 21 Dec 2014 (Local Time) from KBDR Reporting Station
Light Snow Light Snow  
Wind Chill: -2°   Ceiling: 1500
Heat Index:   Visibility: 4mi
Dew Point:   Wind: 7mph
Humidity: 92%   Direction: 10°N
Pressure: 30.32"   Gusts: NA
Location:  41.14°N, 73.36°W
Report Text: KBDR 212319Z 01006KT 4SM -SN BR FEW006 OVC015 02/01 A3032 RMK AO2 VIS 2 1/2 R29 SE RAE00SNB00 P0002 T00170006
Loading
Personal Weather Stations






























Interactive Weather Map New forecast layout! Learn more

10-Day Weather Forecast

Advertisements
Track Severe Weather on mobile